Time;durP1;ratioP1;P1;durP2;ratioP2;P2;SDS_P1;SDS_P2;PMS_P1;PMS_P2;Temp;Humidity;BMP_temperature;BMP_pressure;BME280_temperature;BME280_humidity;BME280_pressure;Samples;Min_cycle;Max_cycle;Signal;HPM_P1;HPM_P2
2022/04/02 00:00:01;;;;;;;;;;;;;;;23.28;66.42;95312.45;575572;244;68117;-70
2022/04/02 00:02:30;;;;;;;;;;;;;;;23.28;68.14;95320.50;575464;245;46596;-70
2022/04/02 00:04:58;;;;;;;;;;;;;;;23.26;67.66;95283.29;575569;246;65354;-70
2022/04/02 00:07:26;;;;;;;;;;;;;;;23.25;69.06;95244.98;575642;246;68134;-70
2022/04/02 00:09:54;;;;;;;;;;;;;;;23.26;68.77;95237.73;575645;246;66013;-70
2022/04/02 00:12:21;;;;;;;;;;;;;;;23.26;68.54;95251.91;575607;246;62978;-70
2022/04/02 00:14:49;;;;;;;;;;;;;;;23.24;67.81;95251.47;575548;246;68183;-70
2022/04/02 00:17:16;;;;;;;;;;;;;;;23.24;68.01;95238.07;575577;246;68087;-70
2022/04/02 00:19:44;;;;;;;;;;;;;;;23.26;68.96;95229.69;575699;242;65156;-70
2022/04/02 00:22:12;;;;;;;;;;;;;;;23.25;68.20;95220.87;586223;242;68387;-70
2022/04/02 00:24:40;;;;;;;;;;;;;;;23.25;69.71;95218.19;586149;242;66604;-70
2022/04/02 00:27:07;;;;;;;;;;;;;;;23.24;68.05;95216.63;586162;242;62978;-70
2022/04/02 00:29:38;;;;;;;;;;;;;;;23.25;67.86;95223.55;586170;242;66238;-70
2022/04/02 00:32:04;;;;;;;;;;;;;;;23.24;69.04;95215.82;586100;242;68186;-70
2022/04/02 00:34:31;;;;;;;;;;;;;;;23.24;68.97;95211.27;586185;242;63030;-70
2022/04/02 00:36:59;;;;;;;;;;;;;;;23.24;69.70;95221.98;586157;242;66406;-70
2022/04/02 00:39:26;;;;;;;;;;;;;;;23.22;69.32;95213.48;586164;242;66365;-69
2022/04/02 00:41:54;;;;;;;;;;;;;;;23.22;67.85;95213.48;586156;242;65940;-69
2022/04/02 00:44:25;;;;;;;;;;;;;;;23.23;67.84;95211.59;586174;242;68168;-70
2022/04/02 00:46:51;;;;;;;;;;;;;;;23.23;68.92;95219.63;586214;242;65552;-70
2022/04/02 00:49:20;;;;;;;;;;;;;;;23.22;68.88;95218.84;586157;242;65394;-70
2022/04/02 00:51:49;;;;;;;;;;;;;;;23.23;68.57;95207.00;586162;242;66574;-70
2022/04/02 00:54:18;;;;;;;;;;;;;;;23.24;69.46;95211.27;586158;242;68374;-70
2022/04/02 00:56:45;;;;;;;;;;;;;;;23.20;69.32;95207.66;586167;242;62965;-70
2022/04/02 00:59:14;;;;;;;;;;;;;;;23.21;66.63;95205.77;586183;242;68865;-70
2022/04/02 01:01:44;;;;;;;;;;;;;;;23.21;68.45;95214.58;586213;242;68377;-70
2022/04/02 01:04:12;;;;;;;;;;;;;;;23.20;69.56;95209.56;586157;242;63348;-70
2022/04/02 01:06:42;;;;;;;;;;;;;;;23.21;68.90;95214.58;586191;242;47576;-70
2022/04/02 01:09:11;;;;;;;;;;;;;;;23.21;70.11;95216.48;586078;242;43871;-70
2022/04/02 01:11:40;;;;;;;;;;;;;;;23.20;68.79;95204.20;586140;242;65200;-70
2022/04/02 01:14:08;;;;;;;;;;;;;;;23.19;69.59;95205.30;586170;242;68874;-70
2022/04/02 01:16:36;;;;;;;;;;;;;;;23.20;68.27;95210.34;586124;242;66066;-70
2022/04/02 01:19:05;;;;;;;;;;;;;;;23.19;69.48;95216.83;586208;242;43117;-70
2022/04/02 01:21:33;;;;;;;;;;;;;;;23.18;68.68;95215.24;577935;242;68747;-70
2022/04/02 01:24:03;;;;;;;;;;;;;;;23.19;69.34;95221.37;575395;245;46032;-70
2022/04/02 01:26:32;;;;;;;;;;;;;;;23.19;69.63;95216.83;575591;246;65392;-70
2022/04/02 01:29:01;;;;;;;;;;;;;;;23.18;69.11;95219.82;575461;245;46011;-70
2022/04/02 01:31:30;;;;;;;;;;;;;;;23.17;70.22;95219.05;575520;245;46315;-70
2022/04/02 01:33:59;;;;;;;;;;;;;;;23.17;68.61;95219.05;575492;246;65936;-70
2022/04/02 01:36:28;;;;;;;;;;;;;;;23.17;69.57;95221.72;575499;246;69641;-70
2022/04/02 01:39:00;;;;;;;;;;;;;;;23.17;69.30;95223.63;575046;246;50046;-70
2022/04/02 01:41:29;;;;;;;;;;;;;;;23.17;69.32;95227.08;575591;246;62838;-70
2022/04/02 01:43:57;;;;;;;;;;;;;;;23.17;69.98;95232.44;575519;245;68771;-70
2022/04/02 01:46:25;;;;;;;;;;;;;;;23.17;69.47;95228.98;575522;246;69082;-70
2022/04/02 01:48:53;;;;;;;;;;;;;;;23.16;70.30;95222.84;575547;246;65992;-70
2022/04/02 01:51:21;;;;;;;;;;;;;;;23.15;68.54;95223.94;575520;246;68780;-70
2022/04/02 01:53:48;;;;;;;;;;;;;;;23.16;69.33;95222.84;575584;246;66402;-70
2022/04/02 01:56:16;;;;;;;;;;;;;;;23.17;69.87;95218.27;575547;246;65886;-70
2022/04/02 01:58:45;;;;;;;;;;;;;;;23.15;69.27;95221.27;575549;245;45188;-69
2022/04/02 02:01:15;;;;;;;;;;;;;;;23.15;70.04;95223.16;575525;245;46066;-69
2022/04/02 02:03:44;;;;;;;;;;;;;;;23.15;69.67;95229.30;575510;246;65906;-69
2022/04/02 02:06:12;;;;;;;;;;;;;;;23.14;68.88;95230.42;575530;246;67667;-69
2022/04/02 02:08:41;;;;;;;;;;;;;;;23.14;69.47;95235.78;575572;245;45933;-70
2022/04/02 02:11:27;;;;;;;;;;;;;;;23.15;68.08;95233.88;575609;246;39231;-71
2022/04/02 02:14:05;;;;;;;;;;;;;;;23.15;69.60;95234.66;575509;245;47054;-71
2022/04/02 02:16:34;;;;;;;;;;;;;;;23.15;70.48;95239.23;575513;246;69120;-71
2022/04/02 02:19:01;;;;;;;;;;;;;;;23.14;68.58;95246.50;575533;246;63100;-71
2022/04/02 02:21:29;;;;;;;;;;;;;;;23.14;68.82;95233.10;583409;242;68698;-71
2022/04/02 02:23:57;;;;;;;;;;;;;;;23.14;70.41;95249.17;586133;242;68557;-71
2022/04/02 02:26:24;;;;;;;;;;;;;;;23.14;69.54;95241.14;586129;242;65152;-71
2022/04/02 02:28:52;;;;;;;;;;;;;;;23.13;69.54;95247.59;586116;242;68735;-71
2022/04/02 02:31:34;;;;;;;;;;;;;;;23.12;69.94;95238.00;586105;242;45934;-70
2022/04/02 02:36:52;;;;;;;;;;;;;;;23.11;68.47;95254.39;586002;242;45919;-69
2022/04/02 02:39:20;;;;;;;;;;;;;;;23.12;68.99;95269.38;586159;242;68616;-69
2022/04/02 02:41:49;;;;;;;;;;;;;;;23.11;68.46;95265.91;585583;242;42271;-69
2022/04/02 02:44:24;;;;;;;;;;;;;;;23.11;70.00;95271.27;585873;242;47336;-69
2022/04/02 02:46:53;;;;;;;;;;;;;;;23.12;70.55;95272.83;585818;242;47019;-69
2022/04/02 02:49:23;;;;;;;;;;;;;;;23.12;68.48;95267.47;586054;242;42240;-69
2022/04/02 02:51:52;;;;;;;;;;;;;;;23.11;69.79;95271.27;586142;242;66065;-69
2022/04/02 02:54:21;;;;;;;;;;;;;;;23.12;69.83;95277.41;586113;242;46344;-69
2022/04/02 02:56:49;;;;;;;;;;;;;;;23.10;69.91;95274.27;586124;242;65926;-69
2022/04/02 02:59:17;;;;;;;;;;;;;;;23.10;68.38;95275.05;586085;242;68885;-69
2022/04/02 03:01:44;;;;;;;;;;;;;;;23.10;69.37;95282.30;586145;242;68527;-69
2022/04/02 03:04:12;;;;;;;;;;;;;;;23.08;68.63;95285.33;586118;242;62860;-69
2022/04/02 03:06:40;;;;;;;;;;;;;;;23.11;69.96;95290.03;586164;242;69241;-69
2022/04/02 03:09:07;;;;;;;;;;;;;;;23.10;70.59;95291.12;586138;242;69260;-69
2022/04/02 03:11:35;;;;;;;;;;;;;;;23.10;70.37;95285.76;586128;242;66251;-69
2022/04/02 03:14:03;;;;;;;;;;;;;;;23.09;70.44;95291.46;586115;242;66189;-69
2022/04/02 03:16:32;;;;;;;;;;;;;;;23.09;70.00;95294.92;586149;242;68697;-69
2022/04/02 03:19:02;;;;;;;;;;;;;;;23.08;69.53;95293.36;586145;242;42490;-69
2022/04/02 03:21:31;;;;;;;;;;;;;;;23.09;69.63;95296.82;586096;242;66760;-69
2022/04/02 03:24:01;;;;;;;;;;;;;;;23.08;70.26;95290.69;586135;242;69255;-69
2022/04/02 03:26:30;;;;;;;;;;;;;;;23.06;71.19;95290.22;586132;242;44094;-69
2022/04/02 03:28:59;;;;;;;;;;;;;;;23.07;69.77;95302.49;586075;242;47669;-69
2022/04/02 03:31:28;;;;;;;;;;;;;;;23.08;69.85;95317.48;586123;242;67952;-69
2022/04/02 03:33:58;;;;;;;;;;;;;;;23.07;70.59;95307.84;586165;242;66025;-69
2022/04/02 03:36:26;;;;;;;;;;;;;;;23.07;69.43;95307.07;586142;242;66063;-69
2022/04/02 03:38:54;;;;;;;;;;;;;;;23.07;68.44;95312.43;586114;242;69030;-69
2022/04/02 03:41:23;;;;;;;;;;;;;;;23.06;70.18;95317.01;586124;242;65423;-69
2022/04/02 03:43:51;;;;;;;;;;;;;;;23.06;70.40;95314.33;586102;242;69782;-69
2022/04/02 03:49:06;;;;;;;;;;;;;;;23.06;70.53;95334.98;586156;242;62518;-69
2022/04/02 03:51:34;;;;;;;;;;;;;;;23.05;70.26;95331.50;586115;242;68673;-69
2022/04/02 03:54:03;;;;;;;;;;;;;;;23.05;70.10;95347.57;586103;242;69020;-69
2022/04/02 03:56:31;;;;;;;;;;;;;;;23.06;69.35;95359.09;586117;242;65866;-69
2022/04/02 03:59:01;;;;;;;;;;;;;;;23.04;70.56;95362.87;586079;242;46887;-69
2022/04/02 04:01:29;;;;;;;;;;;;;;;23.04;69.74;95356.73;586131;242;68229;-69
2022/04/02 04:03:56;;;;;;;;;;;;;;;23.05;70.22;95360.97;586110;242;65235;-69
2022/04/02 04:06:26;;;;;;;;;;;;;;;23.04;70.53;95362.09;586145;242;65795;-70
2022/04/02 04:08:54;;;;;;;;;;;;;;;23.04;69.82;95367.45;586097;242;68577;-69
2022/04/02 04:11:23;;;;;;;;;;;;;;;23.04;70.42;95378.16;586158;242;65929;-69
2022/04/02 04:13:53;;;;;;;;;;;;;;;23.03;70.82;95377.38;586058;242;68858;-69
2022/04/02 04:16:22;;;;;;;;;;;;;;;23.02;70.12;95391.87;586112;242;68433;-69
2022/04/02 04:18:50;;;;;;;;;;;;;;;23.01;70.08;95398.34;586147;242;65440;-69
2022/04/02 04:21:17;;;;;;;;;;;;;;;23.02;69.84;95397.22;579081;242;66085;-69
2022/04/02 04:23:47;;;;;;;;;;;;;;;23.03;71.06;95393.45;575586;245;50193;-70
2022/04/02 04:26:15;;;;;;;;;;;;;;;23.01;70.73;95400.24;575551;246;65958;-70
2022/04/02 04:28:44;;;;;;;;;;;;;;;23.01;70.27;95410.96;575554;246;68943;-70
2022/04/02 04:31:17;;;;;;;;;;;;;;;22.99;67.77;95403.23;575514;246;68934;-69
2022/04/02 04:33:44;;;;;;;;;;;;;;;23.02;70.40;95409.84;575544;244;47037;-70
2022/04/02 04:36:15;;;;;;;;;;;;;;;23.00;70.03;95417.44;575416;246;69141;-70
2022/04/02 04:38:44;;;;;;;;;;;;;;;22.99;70.43;95415.84;575572;246;68767;-70
2022/04/02 04:41:13;;;;;;;;;;;;;;;22.99;70.46;95413.17;575559;245;42748;-70
2022/04/02 04:43:42;;;;;;;;;;;;;;;23.00;71.13;95417.44;575531;246;69320;-70
2022/04/02 04:46:11;;;;;;;;;;;;;;;22.98;70.14;95403.57;575548;246;68739;-70
2022/04/02 04:48:40;;;;;;;;;;;;;;;22.98;70.45;95412.39;575533;246;65918;-70
2022/04/02 04:51:09;;;;;;;;;;;;;;;22.98;70.43;95423.11;575605;246;66123;-70
2022/04/02 04:53:37;;;;;;;;;;;;;;;22.99;70.85;95423.89;575539;246;69042;-70
2022/04/02 04:56:07;;;;;;;;;;;;;;;22.98;71.01;95414.28;575529;246;66122;-71
2022/04/02 04:58:34;;;;;;;;;;;;;;;22.98;70.99;95411.61;575509;246;66633;-71
2022/04/02 05:01:04;;;;;;;;;;;;;;;22.98;69.95;95411.61;575509;244;47414;-71
2022/04/02 05:03:34;;;;;;;;;;;;;;;22.96;70.71;95406.56;575276;245;43862;-70
2022/04/02 05:06:05;;;;;;;;;;;;;;;22.96;70.57;95392.39;575540;245;48784;-70
2022/04/02 05:08:33;;;;;;;;;;;;;;;22.97;70.56;95404.66;575519;246;65925;-70
2022/04/02 05:11:02;;;;;;;;;;;;;;;22.96;70.23;95413.81;575548;246;65940;-70
2022/04/02 05:13:32;;;;;;;;;;;;;;;22.96;70.68;95400.42;575478;245;46684;-70
2022/04/02 05:16:00;;;;;;;;;;;;;;;22.95;70.46;95407.65;575552;246;68735;-71
2022/04/02 05:18:28;;;;;;;;;;;;;;;22.95;70.68;95406.87;575574;246;63039;-70
2022/04/02 05:20:56;;;;;;;;;;;;;;;22.95;70.81;95407.65;580841;242;69169;-70
2022/04/02 05:23:24;;;;;;;;;;;;;;;22.94;70.83;95405.28;586127;242;66438;-70
2022/04/02 05:25:55;;;;;;;;;;;;;;;22.95;70.27;95422.94;586143;242;43929;-70
2022/04/02 05:28:24;;;;;;;;;;;;;;;22.95;71.10;95407.65;586145;242;45279;-70
2022/04/02 05:30:52;;;;;;;;;;;;;;;22.94;71.20;95410.64;586164;242;69051;-70
2022/04/02 05:33:21;;;;;;;;;;;;;;;22.95;70.09;95420.27;586106;242;63032;-70
2022/04/02 05:35:49;;;;;;;;;;;;;;;22.95;70.81;95422.94;586089;242;68578;-70
2022/04/02 05:38:17;;;;;;;;;;;;;;;22.94;70.97;95421.35;586123;242;68709;-70
2022/04/02 05:40:45;;;;;;;;;;;;;;;22.93;69.43;95417.11;586168;242;65282;-70
2022/04/02 05:43:12;;;;;;;;;;;;;;;22.93;70.79;95409.86;586140;242;66233;-70
2022/04/02 05:45:40;;;;;;;;;;;;;;;22.94;70.70;95421.35;586185;242;68582;-70
2022/04/02 05:48:09;;;;;;;;;;;;;;;22.94;71.44;95429.39;586096;242;65172;-70
2022/04/02 05:50:37;;;;;;;;;;;;;;;22.92;69.62;95435.08;586127;242;68923;-70
2022/04/02 05:53:04;;;;;;;;;;;;;;;22.93;69.90;95414.43;585983;242;66415;-70
2022/04/02 05:55:32;;;;;;;;;;;;;;;22.93;70.50;95417.89;586122;242;65172;-70
2022/04/02 05:58:00;;;;;;;;;;;;;;;22.93;69.77;95419.79;586166;242;68887;-70
2022/04/02 06:00:28;;;;;;;;;;;;;;;22.92;71.09;95423.59;585444;242;66590;-72
2022/04/02 06:02:57;;;;;;;;;;;;;;;22.92;69.74;95419.02;586073;242;43555;-75
2022/04/02 06:05:25;;;;;;;;;;;;;;;22.89;68.95;95419.66;586030;242;68776;-71
2022/04/02 06:07:52;;;;;;;;;;;;;;;22.89;71.00;95413.48;585934;242;68617;-70
2022/04/02 06:10:20;;;;;;;;;;;;;;;22.87;68.52;95415.73;586042;242;65295;-68
2022/04/02 06:12:50;;;;;;;;;;;;;;;22.87;70.57;95411.15;586082;242;68847;-71
2022/04/02 06:15:16;;;;;;;;;;;;;;;22.87;69.64;95415.73;585979;242;68827;-72
2022/04/02 06:17:44;;;;;;;;;;;;;;;22.87;68.88;95399.66;585963;242;65573;-65
2022/04/02 06:20:13;;;;;;;;;;;;;;;22.87;66.04;95426.44;586051;242;69785;-72
2022/04/02 06:22:40;;;;;;;;;;;;;;;22.86;67.37;95403.42;586058;242;68539;-72
2022/04/02 06:25:08;;;;;;;;;;;;;;;22.88;67.36;95395.86;586086;242;65434;-73
2022/04/02 06:27:42;;;;;;;;;;;;;;;22.88;68.83;95401.99;586061;242;68876;-72
2022/04/02 06:30:11;;;;;;;;;;;;;;;22.87;69.49;95405.02;586067;242;68299;-75
2022/04/02 06:32:38;;;;;;;;;;;;;;;22.87;69.49;95405.80;586079;242;65814;-73
2022/04/02 06:35:06;;;;;;;;;;;;;;;22.86;69.28;95404.20;586012;242;65855;-73
2022/04/02 06:37:36;;;;;;;;;;;;;;;22.87;69.28;95416.51;586121;242;68957;-74
2022/04/02 06:40:04;;;;;;;;;;;;;;;22.89;69.33;95402.78;585732;242;66479;-73
2022/04/02 06:42:32;;;;;;;;;;;;;;;22.90;67.33;95415.08;586051;242;66516;-74
2022/04/02 06:45:01;;;;;;;;;;;;;;;22.91;68.01;95422.78;586048;242;69267;-72
2022/04/02 06:47:30;;;;;;;;;;;;;;;22.94;69.49;95413.31;586083;242;63060;-72
2022/04/02 06:49:58;;;;;;;;;;;;;;;22.93;69.22;95414.43;586044;242;68904;-73
2022/04/02 06:52:27;;;;;;;;;;;;;;;22.94;67.36;95421.35;586094;242;68574;-73
2022/04/02 06:54:54;;;;;;;;;;;;;;;22.95;67.63;95423.72;586105;242;65283;-72
2022/04/02 06:57:22;;;;;;;;;;;;;;;22.94;68.23;95427.48;586032;242;68423;-72
2022/04/02 06:59:49;;;;;;;;;;;;;;;22.97;68.92;95423.41;585985;242;68807;-76
2022/04/02 07:02:17;;;;;;;;;;;;;;;22.97;68.40;95420.73;586056;242;65173;-73
2022/04/02 07:04:45;;;;;;;;;;;;;;;22.98;68.34;95433.82;586019;242;69821;-73
2022/04/02 07:07:12;;;;;;;;;;;;;;;22.99;66.94;95423.89;586004;242;66572;-73
2022/04/02 07:09:40;;;;;;;;;;;;;;;23.00;67.47;95423.58;586040;242;63105;-73
2022/04/02 07:12:08;;;;;;;;;;;;;;;23.02;67.16;95417.88;585997;242;66501;-73
2022/04/02 07:14:35;;;;;;;;;;;;;;;23.03;67.39;95432.86;586087;242;68562;-74
2022/04/02 07:17:03;;;;;;;;;;;;;;;23.03;67.02;95435.55;586124;242;65465;-73
2022/04/02 07:19:31;;;;;;;;;;;;;;;23.06;67.19;95429.54;586055;242;66523;-73
2022/04/02 07:21:59;;;;;;;;;;;;;;;23.06;67.02;95442.94;586004;242;68800;-73
2022/04/02 07:24:27;;;;;;;;;;;;;;;23.08;68.03;95442.59;586070;242;65495;-72
2022/04/02 07:26:54;;;;;;;;;;;;;;;23.08;67.64;95447.95;586008;242;66431;-67
2022/04/02 07:29:23;;;;;;;;;;;;;;;23.08;66.79;95445.27;586131;242;66796;-66
2022/04/02 07:31:51;;;;;;;;;;;;;;;23.09;67.01;95453.00;586063;242;63036;-64
2022/04/02 07:34:18;;;;;;;;;;;;;;;23.08;67.46;95470.20;585961;242;69112;-64
2022/04/02 07:37:05;;;;;;;;;;;;;;;23.09;68.10;95444.97;586083;242;68558;-67
2022/04/02 07:39:46;;;;;;;;;;;;;;;23.09;68.05;95442.28;585631;242;63106;-66
2022/04/02 07:42:26;;;;;;;;;;;;;;;23.09;66.99;95436.93;585798;242;66402;-65
2022/04/02 07:45:07;;;;;;;;;;;;;;;23.10;66.14;95443.84;586077;242;68628;-66
2022/04/02 07:47:38;;;;;;;;;;;;;;;23.11;66.89;95441.95;586072;242;65570;-64
2022/04/02 07:50:11;;;;;;;;;;;;;;;23.11;66.06;95448.12;586037;242;69237;-64
2022/04/02 07:52:40;;;;;;;;;;;;;;;23.12;65.75;95443.54;586054;242;69283;-66
2022/04/02 07:55:08;;;;;;;;;;;;;;;23.12;66.28;95447.00;586008;242;63198;-69
2022/04/02 07:57:39;;;;;;;;;;;;;;;23.13;66.38;95450.45;586086;242;66752;-73
2022/04/02 08:00:10;;;;;;;;;;;;;;;23.15;60.80;95449.03;586025;242;68668;-73
2022/04/02 08:02:42;;;;;;;;;;;;;;;23.17;64.64;95441.46;586094;242;65401;-74
2022/04/02 08:05:13;;;;;;;;;;;;;;;23.17;64.81;95444.14;586076;242;66209;-74
2022/04/02 08:07:49;;;;;;;;;;;;;;;23.17;64.88;95430.74;585973;242;68565;-75
2022/04/02 08:10:14;;;;;;;;;;;;;;;23.18;64.55;95443.02;586036;242;66148;-69
2022/04/02 08:12:44;;;;;;;;;;;;;;;23.18;63.92;95448.38;586082;242;45906;-73
2022/04/02 08:15:12;;;;;;;;;;;;;;;23.19;64.61;95444.61;586121;242;68352;-74
2022/04/02 08:17:41;;;;;;;;;;;;;;;23.19;63.26;95444.61;586102;242;65549;-74
2022/04/02 08:20:10;;;;;;;;;;;;;;;23.22;64.49;95443.19;586007;242;69372;-74
2022/04/02 08:22:38;;;;;;;;;;;;;;;23.21;64.76;95437.02;586076;242;68344;-74
2022/04/02 08:25:06;;;;;;;;;;;;;;;23.24;64.57;95446.30;586128;242;65605;-74
2022/04/02 08:27:38;;;;;;;;;;;;;;;23.24;64.52;95446.30;586138;242;68640;-73
2022/04/02 08:30:17;;;;;;;;;;;;;;;23.25;63.27;95448.67;586078;242;68382;-74
2022/04/02 08:32:49;;;;;;;;;;;;;;;23.26;63.30;95476.26;586063;242;63260;-58
2022/04/02 08:35:18;;;;;;;;;;;;;;;23.25;65.10;95447.89;586112;242;68890;-71
2022/04/02 08:37:53;;;;;;;;;;;;;;;23.23;65.51;95436.70;585919;242;68654;-70
2022/04/02 08:40:28;;;;;;;;;;;;;;;23.22;66.10;95438.60;585112;242;65515;-71
2022/04/02 08:43:09;;;;;;;;;;;;;;;23.23;63.55;95432.12;585634;242;68728;-71
2022/04/02 08:45:38;;;;;;;;;;;;;;;23.24;65.00;95441.75;576600;242;68623;-71
2022/04/02 08:48:08;;;;;;;;;;;;;;;23.24;63.46;95441.75;585866;242;65156;-71
2022/04/02 08:50:36;;;;;;;;;;;;;;;23.25;65.90;95437.95;586171;242;68813;-71
2022/04/02 08:53:23;;;;;;;;;;;;;;;23.25;63.69;95435.27;586131;242;67591;-71
2022/04/02 08:55:53;;;;;;;;;;;;;;;23.26;63.44;95444.09;586133;242;65165;-71
2022/04/02 08:58:25;;;;;;;;;;;;;;;23.28;66.38;95441.88;585939;242;68764;-71
2022/04/02 09:01:03;;;;;;;;;;;;;;;23.27;64.33;95434.94;586158;242;68417;-72
2022/04/02 09:03:35;;;;;;;;;;;;;;;23.29;64.54;95434.63;586053;242;65998;-71
2022/04/02 09:06:04;;;;;;;;;;;;;;;23.28;65.71;95438.42;586095;242;66507;-67
2022/04/02 09:08:42;;;;;;;;;;;;;;;23.28;63.62;95449.92;585572;242;66766;-72
2022/04/02 09:11:12;;;;;;;;;;;;;;;23.29;64.39;95438.08;581251;242;65375;-70
2022/04/02 09:13:46;;;;;;;;;;;;;;;23.30;64.60;95426.27;586097;242;68727;-72
2022/04/02 09:16:30;;;;;;;;;;;;;;;23.30;64.39;95445.03;585779;242;68593;-72
2022/04/02 09:19:02;;;;;;;;;;;;;;;23.31;64.22;95435.09;585995;242;65501;-74
2022/04/02 09:21:44;;;;;;;;;;;;;;;23.31;63.92;95438.55;585601;242;66450;-74
2022/04/02 09:24:13;;;;;;;;;;;;;;;23.31;66.21;95430.52;586151;242;68690;-75
2022/04/02 09:27:00;;;;;;;;;;;;;;;23.32;64.44;95433.97;586118;242;65361;-75
2022/04/02 09:29:31;;;;;;;;;;;;;;;23.33;63.53;95422.16;586145;242;68563;-75
2022/04/02 09:32:08;;;;;;;;;;;;;;;23.34;63.71;95426.41;586118;242;69411;-75
2022/04/02 09:34:54;;;;;;;;;;;;;;;23.34;64.33;95426.41;586104;242;65400;-76
2022/04/02 09:37:32;;;;;;;;;;;;;;;23.36;62.72;95432.23;586151;242;69000;-74
2022/04/02 09:40:06;;;;;;;;;;;;;;;23.36;63.59;95433.01;585333;242;66567;-74
2022/04/02 09:42:44;;;;;;;;;;;;;;;23.37;63.26;95423.06;586127;242;65599;-74
2022/04/02 09:45:13;;;;;;;;;;;;;;;23.37;63.62;95410.45;586110;242;68670;-74
2022/04/02 09:47:51;;;;;;;;;;;;;;;23.39;64.62;95418.17;586108;242;68500;-74
2022/04/02 09:50:19;;;;;;;;;;;;;;;23.39;64.22;95415.50;583903;242;65226;-74
2022/04/02 09:52:57;;;;;;;;;;;;;;;23.40;64.02;95412.47;586131;242;69078;-74
2022/04/02 09:55:25;;;;;;;;;;;;;;;23.40;63.66;95420.52;586176;242;69569;-75
2022/04/02 09:58:11;;;;;;;;;;;;;;;23.41;63.31;95424.00;586114;242;65205;-75
2022/04/02 10:00:40;;;;;;;;;;;;;;;23.42;63.39;95433.61;586034;242;69569;-75
2022/04/02 10:03:08;;;;;;;;;;;;;;;23.42;62.37;95430.92;585908;242;69412;-74
2022/04/02 10:05:37;;;;;;;;;;;;;;;23.43;63.51;95403.78;586131;242;63333;-74
2022/04/02 10:08:06;;;;;;;;;;;;;;;23.44;63.45;95412.63;585830;242;68743;-73
2022/04/02 10:10:34;;;;;;;;;;;;;;;23.44;62.60;95418.77;586070;242;68582;-74
2022/04/02 10:13:04;;;;;;;;;;;;;;;23.45;62.85;95420.33;586107;242;65287;-74
2022/04/02 10:15:32;;;;;;;;;;;;;;;23.46;63.27;95431.83;586151;242;68754;-74
2022/04/02 10:18:01;;;;;;;;;;;;;;;23.46;62.99;95432.64;586130;242;68540;-74
2022/04/02 10:20:30;;;;;;;;;;;;;;;23.47;63.60;95434.20;586144;242;63128;-74
2022/04/02 10:23:02;;;;;;;;;;;;;;;23.47;64.17;95430.74;586084;242;68922;-74
2022/04/02 10:25:35;;;;;;;;;;;;;;;23.48;63.25;95438.45;585908;242;48887;-73
2022/04/02 10:28:02;;;;;;;;;;;;;;;23.48;63.54;95434.98;585860;242;65415;-74
2022/04/02 10:30:31;;;;;;;;;;;;;;;23.48;63.06;95435.77;586139;242;68699;-74
2022/04/02 10:35:49;;;;;;;;;;;;;;;23.48;62.92;95422.36;586170;242;65455;-74
2022/04/02 10:38:21;;;;;;;;;;;;;;;23.49;62.81;95428.53;586137;242;68701;-74
2022/04/02 10:40:51;;;;;;;;;;;;;;;23.49;62.75;95420.48;586065;242;66472;-74
2022/04/02 10:43:23;;;;;;;;;;;;;;;23.50;62.83;95416.68;586147;242;65642;-74
2022/04/02 10:45:50;;;;;;;;;;;;;;;23.50;62.93;95432.77;586128;242;65894;-74
2022/04/02 10:48:19;;;;;;;;;;;;;;;23.52;63.18;95424.39;586121;242;66498;-74
2022/04/02 10:50:47;;;;;;;;;;;;;;;23.51;63.17;95410.20;586056;242;63113;-74
2022/04/02 10:53:17;;;;;;;;;;;;;;;23.53;62.93;95421.39;586134;242;68929;-74
2022/04/02 10:55:45;;;;;;;;;;;;;;;23.54;63.60;95412.23;586098;242;68622;-74
2022/04/02 10:58:14;;;;;;;;;;;;;;;23.53;63.55;95402.63;586122;242;65691;-74
2022/04/02 11:00:46;;;;;;;;;;;;;;;23.53;63.49;95413.34;586117;242;68706;-74
2022/04/02 11:03:18;;;;;;;;;;;;;;;23.55;62.44;95418.40;586155;242;68700;-74
2022/04/02 11:05:46;;;;;;;;;;;;;;;23.54;63.84;95401.50;585819;242;65119;-75
2022/04/02 11:08:14;;;;;;;;;;;;;;;23.55;63.28;95407.67;586146;242;67484;-75
2022/04/02 11:10:43;;;;;;;;;;;;;;;23.56;63.97;95414.59;586106;242;66577;-75
2022/04/02 11:13:11;;;;;;;;;;;;;;;23.56;63.14;95425.32;585968;242;63068;-75
2022/04/02 11:15:42;;;;;;;;;;;;;;;23.56;62.84;95420.73;586108;242;66648;-75
2022/04/02 11:18:18;;;;;;;;;;;;;;;23.57;63.46;95427.69;586163;242;68824;-75
2022/04/02 11:20:48;;;;;;;;;;;;;;;23.57;63.37;95422.33;586108;242;65503;-75
2022/04/02 11:23:23;;;;;;;;;;;;;;;23.57;63.66;95416.97;586125;242;69068;-73
2022/04/02 11:25:54;;;;;;;;;;;;;;;23.57;62.25;95411.60;585150;242;68617;-73
2022/04/02 11:28:23;;;;;;;;;;;;;;;23.58;63.82;95410.48;585179;242;65068;-73
2022/04/02 11:31:03;;;;;;;;;;;;;;;23.57;63.88;95400.88;586110;242;68878;-74
2022/04/02 11:33:33;;;;;;;;;;;;;;;23.59;63.53;95400.53;586189;242;68541;-74
2022/04/02 11:36:03;;;;;;;;;;;;;;;23.58;62.98;95399.75;585066;242;65504;-74
2022/04/02 11:38:32;;;;;;;;;;;;;;;23.58;62.31;95393.61;586157;242;68854;-74
2022/04/02 11:41:04;;;;;;;;;;;;;;;23.59;63.03;95395.17;586146;242;66929;-74
2022/04/02 11:43:36;;;;;;;;;;;;;;;23.59;63.45;95395.95;586128;242;63035;-74
2022/04/02 11:46:05;;;;;;;;;;;;;;;23.59;63.08;95395.95;585889;242;68946;-74
2022/04/02 11:48:33;;;;;;;;;;;;;;;23.59;63.13;95403.21;586171;242;66524;-74
2022/04/02 11:51:14;;;;;;;;;;;;;;;23.60;64.01;95410.95;586135;242;65421;-74
2022/04/02 11:53:42;;;;;;;;;;;;;;;23.60;63.05;95431.59;586147;242;68798;-74
2022/04/02 11:56:28;;;;;;;;;;;;;;;23.61;63.18;95452.73;586130;242;68543;-74
2022/04/02 11:58:57;;;;;;;;;;;;;;;23.61;63.62;95468.03;586154;242;65977;-74
2022/04/02 12:01:25;;;;;;;;;;;;;;;23.61;64.51;95494.86;579703;242;67086;-74
2022/04/02 12:04:15;;;;;;;;;;;;;;;23.62;64.11;95499.09;586178;242;66494;-71
2022/04/02 12:06:46;;;;;;;;;;;;;;;23.61;64.21;95509.05;586187;242;65479;-72
2022/04/02 12:09:15;;;;;;;;;;;;;;;23.61;64.10;95465.36;586101;242;69015;-72
2022/04/02 12:11:44;;;;;;;;;;;;;;;23.61;63.51;95465.36;586160;242;68666;-72
2022/04/02 12:14:13;;;;;;;;;;;;;;;23.63;64.01;95468.50;585932;242;65451;-72
2022/04/02 12:16:41;;;;;;;;;;;;;;;23.63;63.28;95474.65;585529;242;66591;-71
2022/04/02 12:19:11;;;;;;;;;;;;;;;23.63;64.08;95476.55;586213;242;68791;-71
2022/04/02 12:21:44;;;;;;;;;;;;;;;23.62;64.20;95478.42;586127;242;65442;-71
2022/04/02 12:24:12;;;;;;;;;;;;;;;23.64;63.26;95467.38;586176;242;69403;-72
2022/04/02 12:26:40;;;;;;;;;;;;;;;23.63;63.63;95458.56;586149;242;68384;-71
2022/04/02 12:29:08;;;;;;;;;;;;;;;23.64;63.64;95459.34;586204;242;63239;-71
2022/04/02 12:31:35;;;;;;;;;;;;;;;23.64;64.37;95454.76;586205;242;66227;-71
2022/04/02 12:34:03;;;;;;;;;;;;;;;23.64;63.90;95444.03;586135;242;68441;-71
2022/04/02 12:36:33;;;;;;;;;;;;;;;23.64;64.28;95444.03;586149;242;65429;-71
2022/04/02 12:39:02;;;;;;;;;;;;;;;23.64;64.20;95433.30;586153;242;65928;-71
2022/04/02 12:41:30;;;;;;;;;;;;;;;23.64;64.92;95432.52;585561;242;68334;-71
2022/04/02 12:43:59;;;;;;;;;;;;;;;23.63;64.90;95437.11;586155;242;63055;-71
2022/04/02 12:46:27;;;;;;;;;;;;;;;23.64;64.72;95438.66;586147;242;66277;-71
2022/04/02 12:48:55;;;;;;;;;;;;;;;23.65;64.37;95434.08;586156;242;66264;-71
2022/04/02 12:51:26;;;;;;;;;;;;;;;23.65;63.83;95424.16;586148;242;65154;-71
2022/04/02 12:54:01;;;;;;;;;;;;;;;23.64;63.66;95403.80;586158;242;68713;-71
2022/04/02 12:56:30;;;;;;;;;;;;;;;23.65;64.45;95402.70;586117;242;66902;-71
2022/04/02 12:58:59;;;;;;;;;;;;;;;23.65;64.69;95408.08;586210;242;65219;-71
2022/04/02 13:01:35;;;;;;;;;;;;;;;23.65;64.65;95402.70;586108;242;68756;-71
2022/04/02 13:04:04;;;;;;;;;;;;;;;23.66;64.17;95403.48;585915;242;68613;-71
2022/04/02 13:06:37;;;;;;;;;;;;;;;23.65;64.73;95408.08;586160;242;63033;-71
2022/04/02 13:09:09;;;;;;;;;;;;;;;23.64;64.58;95406.48;585898;242;68978;-71